sensor_id;sensor_type;location;lat;lon;timestamp;P1;durP1;ratioP1;P2;durP2;ratioP2
10315;SDS011;5203;48.976;8.306;2023-10-13T00:02:07;9.88;;;8.82;;
10315;SDS011;5203;48.976;8.306;2023-10-13T00:04:33;14.10;;;9.38;;
10315;SDS011;5203;48.976;8.306;2023-10-13T00:07:01;10.75;;;8.75;;
10315;SDS011;5203;48.976;8.306;2023-10-13T00:09:28;9.60;;;8.55;;
10315;SDS011;5203;48.976;8.306;2023-10-13T00:12:06;11.25;;;7.78;;
10315;SDS011;5203;48.976;8.306;2023-10-13T00:14:38;10.77;;;9.02;;
10315;SDS011;5203;48.976;8.306;2023-10-13T00:17:06;11.27;;;8.85;;
10315;SDS011;5203;48.976;8.306;2023-10-13T00:19:33;12.20;;;9.02;;
10315;SDS011;5203;48.976;8.306;2023-10-13T00:22:11;9.43;;;6.63;;
10315;SDS011;5203;48.976;8.306;2023-10-13T00:24:38;11.20;;;9.90;;
10315;SDS011;5203;48.976;8.306;2023-10-13T00:27:20;13.18;;;9.10;;
10315;SDS011;5203;48.976;8.306;2023-10-13T00:30:02;13.82;;;8.63;;
10315;SDS011;5203;48.976;8.306;2023-10-13T00:32:44;11.70;;;8.13;;
10315;SDS011;5203;48.976;8.306;2023-10-13T00:35:26;11.65;;;8.05;;
10315;SDS011;5203;48.976;8.306;2023-10-13T00:38:04;13.75;;;9.80;;
10315;SDS011;5203;48.976;8.306;2023-10-13T00:43:09;12.15;;;8.07;;
10315;SDS011;5203;48.976;8.306;2023-10-13T00:45:44;10.15;;;8.70;;
10315;SDS011;5203;48.976;8.306;2023-10-13T00:48:25;10.23;;;8.23;;
10315;SDS011;5203;48.976;8.306;2023-10-13T00:50:58;9.80;;;8.43;;
10315;SDS011;5203;48.976;8.306;2023-10-13T00:53:28;13.02;;;8.18;;
10315;SDS011;5203;48.976;8.306;2023-10-13T00:55:59;11.25;;;8.02;;
10315;SDS011;5203;48.976;8.306;2023-10-13T00:58:32;14.23;;;8.10;;
10315;SDS011;5203;48.976;8.306;2023-10-13T01:00:59;10.18;;;7.43;;
10315;SDS011;5203;48.976;8.306;2023-10-13T01:03:43;9.00;;;7.43;;
10315;SDS011;5203;48.976;8.306;2023-10-13T01:06:16;11.63;;;7.80;;
10315;SDS011;5203;48.976;8.306;2023-10-13T01:08:44;9.02;;;7.28;;
10315;SDS011;5203;48.976;8.306;2023-10-13T01:11:15;9.38;;;8.48;;
10315;SDS011;5203;48.976;8.306;2023-10-13T01:13:45;10.45;;;6.43;;
10315;SDS011;5203;48.976;8.306;2023-10-13T01:16:16;11.05;;;7.50;;
10315;SDS011;5203;48.976;8.306;2023-10-13T01:18:43;7.18;;;5.18;;
10315;SDS011;5203;48.976;8.306;2023-10-13T01:21:17;10.43;;;7.32;;
10315;SDS011;5203;48.976;8.306;2023-10-13T01:23:45;7.95;;;6.90;;
10315;SDS011;5203;48.976;8.306;2023-10-13T01:26:13;8.95;;;6.70;;
10315;SDS011;5203;48.976;8.306;2023-10-13T01:28:48;7.57;;;6.22;;
10315;SDS011;5203;48.976;8.306;2023-10-13T01:31:15;7.63;;;6.25;;
10315;SDS011;5203;48.976;8.306;2023-10-13T01:33:52;8.93;;;7.20;;
10315;SDS011;5203;48.976;8.306;2023-10-13T01:36:22;6.38;;;5.75;;
10315;SDS011;5203;48.976;8.306;2023-10-13T01:38:48;9.45;;;7.60;;
10315;SDS011;5203;48.976;8.306;2023-10-13T01:41:18;7.93;;;6.30;;
10315;SDS011;5203;48.976;8.306;2023-10-13T01:46:11;8.57;;;5.35;;
10315;SDS011;5203;48.976;8.306;2023-10-13T01:48:46;7.13;;;5.65;;
10315;SDS011;5203;48.976;8.306;2023-10-13T01:51:12;7.93;;;5.15;;
10315;SDS011;5203;48.976;8.306;2023-10-13T01:53:38;7.43;;;6.55;;
10315;SDS011;5203;48.976;8.306;2023-10-13T01:56:05;7.10;;;4.50;;
10315;SDS011;5203;48.976;8.306;2023-10-13T01:58:35;6.28;;;4.63;;
10315;SDS011;5203;48.976;8.306;2023-10-13T02:01:08;6.90;;;5.35;;
10315;SDS011;5203;48.976;8.306;2023-10-13T02:03:35;9.00;;;5.45;;
10315;SDS011;5203;48.976;8.306;2023-10-13T02:06:11;6.28;;;5.20;;
10315;SDS011;5203;48.976;8.306;2023-10-13T02:08:42;6.20;;;5.38;;
10315;SDS011;5203;48.976;8.306;2023-10-13T02:11:08;5.70;;;5.07;;
10315;SDS011;5203;48.976;8.306;2023-10-13T02:13:34;6.47;;;5.63;;
10315;SDS011;5203;48.976;8.306;2023-10-13T02:16:06;8.85;;;5.07;;
10315;SDS011;5203;48.976;8.306;2023-10-13T02:18:32;6.65;;;5.03;;
10315;SDS011;5203;48.976;8.306;2023-10-13T02:21:08;5.82;;;5.20;;
10315;SDS011;5203;48.976;8.306;2023-10-13T02:23:40;6.45;;;5.53;;
10315;SDS011;5203;48.976;8.306;2023-10-13T02:26:11;9.20;;;4.95;;
10315;SDS011;5203;48.976;8.306;2023-10-13T02:28:41;8.82;;;5.40;;
10315;SDS011;5203;48.976;8.306;2023-10-13T02:31:16;10.07;;;5.95;;
10315;SDS011;5203;48.976;8.306;2023-10-13T02:33:44;7.63;;;6.97;;
10315;SDS011;5203;48.976;8.306;2023-10-13T02:36:10;4.82;;;4.35;;
10315;SDS011;5203;48.976;8.306;2023-10-13T02:41:03;5.15;;;4.45;;
10315;SDS011;5203;48.976;8.306;2023-10-13T02:43:33;6.13;;;4.85;;
10315;SDS011;5203;48.976;8.306;2023-10-13T02:45:59;6.20;;;4.40;;
10315;SDS011;5203;48.976;8.306;2023-10-13T02:48:25;6.75;;;5.55;;
10315;SDS011;5203;48.976;8.306;2023-10-13T02:50:58;6.40;;;5.22;;
10315;SDS011;5203;48.976;8.306;2023-10-13T02:53:30;5.68;;;5.03;;
10315;SDS011;5203;48.976;8.306;2023-10-13T02:55:56;5.82;;;5.22;;
10315;SDS011;5203;48.976;8.306;2023-10-13T02:58:23;6.20;;;4.93;;
10315;SDS011;5203;48.976;8.306;2023-10-13T03:01:02;7.65;;;5.50;;
10315;SDS011;5203;48.976;8.306;2023-10-13T03:03:51;6.93;;;4.65;;
10315;SDS011;5203;48.976;8.306;2023-10-13T03:06:19;7.07;;;6.13;;
10315;SDS011;5203;48.976;8.306;2023-10-13T03:08:48;6.93;;;4.97;;
10315;SDS011;5203;48.976;8.306;2023-10-13T03:11:14;5.65;;;5.15;;
10315;SDS011;5203;48.976;8.306;2023-10-13T03:13:42;6.35;;;5.85;;
10315;SDS011;5203;48.976;8.306;2023-10-13T03:16:15;5.88;;;5.05;;
10315;SDS011;5203;48.976;8.306;2023-10-13T03:18:48;6.53;;;5.57;;
10315;SDS011;5203;48.976;8.306;2023-10-13T03:21:19;6.28;;;5.10;;
10315;SDS011;5203;48.976;8.306;2023-10-13T03:23:56;6.07;;;5.57;;
10315;SDS011;5203;48.976;8.306;2023-10-13T03:26:29;6.32;;;5.53;;
10315;SDS011;5203;48.976;8.306;2023-10-13T03:28:59;8.13;;;4.97;;
10315;SDS011;5203;48.976;8.306;2023-10-13T03:31:28;6.13;;;5.63;;
10315;SDS011;5203;48.976;8.306;2023-10-13T03:33:54;8.52;;;7.30;;
10315;SDS011;5203;48.976;8.306;2023-10-13T03:36:25;5.80;;;5.00;;
10315;SDS011;5203;48.976;8.306;2023-10-13T03:39:10;8.18;;;6.93;;
10315;SDS011;5203;48.976;8.306;2023-10-13T03:41:36;6.45;;;5.82;;
10315;SDS011;5203;48.976;8.306;2023-10-13T03:44:04;6.45;;;5.40;;
10315;SDS011;5203;48.976;8.306;2023-10-13T03:46:48;8.73;;;5.68;;
10315;SDS011;5203;48.976;8.306;2023-10-13T03:49:17;5.60;;;5.05;;
10315;SDS011;5203;48.976;8.306;2023-10-13T03:51:50;7.30;;;6.47;;
10315;SDS011;5203;48.976;8.306;2023-10-13T03:54:19;7.15;;;6.32;;
10315;SDS011;5203;48.976;8.306;2023-10-13T03:56:45;7.47;;;4.13;;
10315;SDS011;5203;48.976;8.306;2023-10-13T03:59:11;5.45;;;4.95;;
10315;SDS011;5203;48.976;8.306;2023-10-13T04:01:39;5.80;;;5.25;;
10315;SDS011;5203;48.976;8.306;2023-10-13T04:04:08;6.70;;;6.07;;
10315;SDS011;5203;48.976;8.306;2023-10-13T04:06:37;5.05;;;4.53;;
10315;SDS011;5203;48.976;8.306;2023-10-13T04:09:21;5.25;;;4.10;;
10315;SDS011;5203;48.976;8.306;2023-10-13T04:14:35;7.47;;;4.22;;
10315;SDS011;5203;48.976;8.306;2023-10-13T04:17:20;7.10;;;6.15;;
10315;SDS011;5203;48.976;8.306;2023-10-13T04:19:53;5.90;;;5.25;;
10315;SDS011;5203;48.976;8.306;2023-10-13T04:22:35;6.13;;;5.50;;
10315;SDS011;5203;48.976;8.306;2023-10-13T04:25:16;5.45;;;4.68;;
10315;SDS011;5203;48.976;8.306;2023-10-13T04:28:09;4.85;;;4.38;;
10315;SDS011;5203;48.976;8.306;2023-10-13T04:30:40;8.48;;;5.75;;
10315;SDS011;5203;48.976;8.306;2023-10-13T04:33:21;5.32;;;4.70;;
10315;SDS011;5203;48.976;8.306;2023-10-13T04:36:06;10.18;;;7.60;;
10315;SDS011;5203;48.976;8.306;2023-10-13T04:39:02;7.10;;;5.80;;
10315;SDS011;5203;48.976;8.306;2023-10-13T04:41:32;9.32;;;5.85;;
10315;SDS011;5203;48.976;8.306;2023-10-13T04:44:04;7.22;;;5.38;;
10315;SDS011;5203;48.976;8.306;2023-10-13T04:46:49;9.07;;;5.80;;
10315;SDS011;5203;48.976;8.306;2023-10-13T04:49:15;18.05;;;7.35;;
10315;SDS011;5203;48.976;8.306;2023-10-13T04:51:57;6.63;;;4.85;;
10315;SDS011;5203;48.976;8.306;2023-10-13T04:54:27;7.18;;;5.68;;
10315;SDS011;5203;48.976;8.306;2023-10-13T04:57:18;6.15;;;5.55;;
10315;SDS011;5203;48.976;8.306;2023-10-13T05:00:00;7.53;;;6.03;;
10315;SDS011;5203;48.976;8.306;2023-10-13T05:02:28;5.72;;;4.35;;
10315;SDS011;5203;48.976;8.306;2023-10-13T05:05:10;9.73;;;4.70;;
10315;SDS011;5203;48.976;8.306;2023-10-13T05:07:37;7.35;;;5.07;;
10315;SDS011;5203;48.976;8.306;2023-10-13T05:10:21;5.60;;;4.75;;
10315;SDS011;5203;48.976;8.306;2023-10-13T05:13:06;5.82;;;4.65;;
10315;SDS011;5203;48.976;8.306;2023-10-13T05:15:51;6.20;;;5.55;;
10315;SDS011;5203;48.976;8.306;2023-10-13T05:18:35;5.70;;;5.10;;
10315;SDS011;5203;48.976;8.306;2023-10-13T05:21:19;7.25;;;5.55;;
10315;SDS011;5203;48.976;8.306;2023-10-13T05:24:04;7.40;;;5.53;;
10315;SDS011;5203;48.976;8.306;2023-10-13T05:26:49;5.68;;;4.65;;
10315;SDS011;5203;48.976;8.306;2023-10-13T05:29:33;7.53;;;4.45;;
10315;SDS011;5203;48.976;8.306;2023-10-13T05:32:21;5.95;;;5.35;;
10315;SDS011;5203;48.976;8.306;2023-10-13T05:35:06;6.78;;;4.35;;
10315;SDS011;5203;48.976;8.306;2023-10-13T05:37:50;6.32;;;5.78;;
10315;SDS011;5203;48.976;8.306;2023-10-13T05:40:35;7.28;;;5.28;;
10315;SDS011;5203;48.976;8.306;2023-10-13T05:43:19;7.97;;;4.97;;
10315;SDS011;5203;48.976;8.306;2023-10-13T05:46:03;8.45;;;5.35;;
10315;SDS011;5203;48.976;8.306;2023-10-13T05:49:06;8.00;;;5.80;;
10315;SDS011;5203;48.976;8.306;2023-10-13T05:51:41;6.07;;;5.40;;
10315;SDS011;5203;48.976;8.306;2023-10-13T05:54:30;6.72;;;5.70;;
10315;SDS011;5203;48.976;8.306;2023-10-13T05:57:34;9.38;;;4.95;;
10315;SDS011;5203;48.976;8.306;2023-10-13T06:00:10;7.38;;;5.72;;
10315;SDS011;5203;48.976;8.306;2023-10-13T06:02:55;8.13;;;5.28;;
10315;SDS011;5203;48.976;8.306;2023-10-13T06:05:39;7.32;;;5.50;;
10315;SDS011;5203;48.976;8.306;2023-10-13T06:08:23;6.15;;;4.97;;
10315;SDS011;5203;48.976;8.306;2023-10-13T06:11:21;6.55;;;4.93;;
10315;SDS011;5203;48.976;8.306;2023-10-13T06:14:06;6.20;;;4.88;;
10315;SDS011;5203;48.976;8.306;2023-10-13T06:16:50;6.00;;;4.93;;
10315;SDS011;5203;48.976;8.306;2023-10-13T06:19:34;6.57;;;5.93;;
10315;SDS011;5203;48.976;8.306;2023-10-13T06:22:18;6.32;;;4.63;;
10315;SDS011;5203;48.976;8.306;2023-10-13T06:25:09;6.68;;;4.80;;
10315;SDS011;5203;48.976;8.306;2023-10-13T06:27:54;8.00;;;5.88;;
10315;SDS011;5203;48.976;8.306;2023-10-13T06:30:38;7.55;;;6.18;;
10315;SDS011;5203;48.976;8.306;2023-10-13T06:33:03;6.57;;;5.13;;
10315;SDS011;5203;48.976;8.306;2023-10-13T06:35:29;10.13;;;5.28;;
10315;SDS011;5203;48.976;8.306;2023-10-13T06:37:56;7.82;;;5.97;;
10315;SDS011;5203;48.976;8.306;2023-10-13T06:40:25;6.68;;;4.50;;
10315;SDS011;5203;48.976;8.306;2023-10-13T06:42:51;6.45;;;5.28;;
10315;SDS011;5203;48.976;8.306;2023-10-13T06:45:36;7.68;;;5.00;;
10315;SDS011;5203;48.976;8.306;2023-10-13T06:48:02;5.85;;;3.45;;
10315;SDS011;5203;48.976;8.306;2023-10-13T06:50:29;6.65;;;5.03;;
10315;SDS011;5203;48.976;8.306;2023-10-13T06:53:04;7.63;;;5.18;;
10315;SDS011;5203;48.976;8.306;2023-10-13T06:55:30;7.72;;;5.60;;
10315;SDS011;5203;48.976;8.306;2023-10-13T06:58:00;9.00;;;5.60;;
10315;SDS011;5203;48.976;8.306;2023-10-13T07:00:26;9.05;;;5.53;;
10315;SDS011;5203;48.976;8.306;2023-10-13T07:02:55;6.70;;;6.03;;
10315;SDS011;5203;48.976;8.306;2023-10-13T07:05:42;6.63;;;5.20;;
10315;SDS011;5203;48.976;8.306;2023-10-13T07:08:09;6.10;;;4.88;;
10315;SDS011;5203;48.976;8.306;2023-10-13T07:10:47;8.27;;;4.68;;
10315;SDS011;5203;48.976;8.306;2023-10-13T07:13:33;9.23;;;5.20;;
10315;SDS011;5203;48.976;8.306;2023-10-13T07:16:03;9.73;;;6.15;;
10315;SDS011;5203;48.976;8.306;2023-10-13T07:18:38;8.98;;;6.88;;
10315;SDS011;5203;48.976;8.306;2023-10-13T07:21:14;13.25;;;6.75;;
10315;SDS011;5203;48.976;8.306;2023-10-13T07:23:41;7.65;;;6.03;;
10315;SDS011;5203;48.976;8.306;2023-10-13T07:26:14;10.13;;;5.70;;
10315;SDS011;5203;48.976;8.306;2023-10-13T07:28:40;11.15;;;5.47;;
10315;SDS011;5203;48.976;8.306;2023-10-13T07:31:12;9.30;;;6.03;;
10315;SDS011;5203;48.976;8.306;2023-10-13T07:33:41;10.63;;;6.70;;
10315;SDS011;5203;48.976;8.306;2023-10-13T07:36:07;7.03;;;5.15;;
10315;SDS011;5203;48.976;8.306;2023-10-13T07:38:53;8.07;;;6.55;;
10315;SDS011;5203;48.976;8.306;2023-10-13T07:41:44;8.50;;;5.95;;
10315;SDS011;5203;48.976;8.306;2023-10-13T07:44:16;7.32;;;4.30;;
10315;SDS011;5203;48.976;8.306;2023-10-13T07:46:45;7.53;;;5.60;;
10315;SDS011;5203;48.976;8.306;2023-10-13T07:49:22;11.60;;;5.15;;
10315;SDS011;5203;48.976;8.306;2023-10-13T07:51:56;5.80;;;4.43;;
10315;SDS011;5203;48.976;8.306;2023-10-13T07:54:28;5.53;;;4.82;;
10315;SDS011;5203;48.976;8.306;2023-10-13T07:56:54;7.63;;;4.97;;
10315;SDS011;5203;48.976;8.306;2023-10-13T07:59:20;7.70;;;5.03;;
10315;SDS011;5203;48.976;8.306;2023-10-13T08:01:48;5.75;;;5.15;;
10315;SDS011;5203;48.976;8.306;2023-10-13T08:04:34;6.72;;;5.03;;
10315;SDS011;5203;48.976;8.306;2023-10-13T08:07:02;6.25;;;5.57;;
10315;SDS011;5203;48.976;8.306;2023-10-13T08:09:37;8.13;;;5.50;;
10315;SDS011;5203;48.976;8.306;2023-10-13T08:12:08;6.13;;;5.53;;
10315;SDS011;5203;48.976;8.306;2023-10-13T08:14:37;8.50;;;5.72;;
10315;SDS011;5203;48.976;8.306;2023-10-13T08:17:07;7.15;;;4.93;;
10315;SDS011;5203;48.976;8.306;2023-10-13T08:19:36;6.45;;;3.90;;
10315;SDS011;5203;48.976;8.306;2023-10-13T08:22:07;5.00;;;3.97;;
10315;SDS011;5203;48.976;8.306;2023-10-13T08:24:43;5.32;;;4.50;;
10315;SDS011;5203;48.976;8.306;2023-10-13T08:27:09;5.35;;;4.35;;
10315;SDS011;5203;48.976;8.306;2023-10-13T08:29:49;8.35;;;5.45;;
10315;SDS011;5203;48.976;8.306;2023-10-13T08:34:52;7.57;;;3.55;;
10315;SDS011;5203;48.976;8.306;2023-10-13T08:37:21;5.07;;;3.92;;
10315;SDS011;5203;48.976;8.306;2023-10-13T08:39:47;4.50;;;3.67;;
10315;SDS011;5203;48.976;8.306;2023-10-13T08:42:35;6.32;;;4.53;;
10315;SDS011;5203;48.976;8.306;2023-10-13T08:47:55;5.28;;;3.50;;
10315;SDS011;5203;48.976;8.306;2023-10-13T08:50:49;5.50;;;3.78;;
10315;SDS011;5203;48.976;8.306;2023-10-13T08:58:28;7.10;;;4.05;;
10315;SDS011;5203;48.976;8.306;2023-10-13T09:01:14;4.60;;;3.53;;
10315;SDS011;5203;48.976;8.306;2023-10-13T09:04:09;5.78;;;3.65;;
10315;SDS011;5203;48.976;8.306;2023-10-13T09:06:43;6.15;;;3.13;;
10315;SDS011;5203;48.976;8.306;2023-10-13T09:09:12;4.03;;;3.10;;
10315;SDS011;5203;48.976;8.306;2023-10-13T09:11:51;6.05;;;3.15;;
10315;SDS011;5203;48.976;8.306;2023-10-13T09:14:34;6.70;;;2.88;;
10315;SDS011;5203;48.976;8.306;2023-10-13T09:17:08;4.70;;;3.22;;
10315;SDS011;5203;48.976;8.306;2023-10-13T09:19:44;4.63;;;3.53;;
10315;SDS011;5203;48.976;8.306;2023-10-13T09:22:23;4.43;;;3.00;;
10315;SDS011;5203;48.976;8.306;2023-10-13T09:25:01;7.55;;;3.22;;
10315;SDS011;5203;48.976;8.306;2023-10-13T09:27:30;6.18;;;3.47;;
10315;SDS011;5203;48.976;8.306;2023-10-13T09:30:03;6.05;;;3.17;;
10315;SDS011;5203;48.976;8.306;2023-10-13T09:32:45;6.82;;;3.10;;
10315;SDS011;5203;48.976;8.306;2023-10-13T09:35:19;6.68;;;2.95;;
10315;SDS011;5203;48.976;8.306;2023-10-13T09:37:48;8.82;;;3.85;;
10315;SDS011;5203;48.976;8.306;2023-10-13T09:40:16;5.82;;;3.28;;
10315;SDS011;5203;48.976;8.306;2023-10-13T09:42:58;4.13;;;3.13;;
10315;SDS011;5203;48.976;8.306;2023-10-13T09:45:30;5.43;;;3.30;;
10315;SDS011;5203;48.976;8.306;2023-10-13T09:48:11;8.52;;;3.28;;
10315;SDS011;5203;48.976;8.306;2023-10-13T09:50:47;7.65;;;2.60;;
10315;SDS011;5203;48.976;8.306;2023-10-13T09:56:06;4.75;;;3.17;;
10315;SDS011;5203;48.976;8.306;2023-10-13T09:58:54;4.75;;;2.55;;
10315;SDS011;5203;48.976;8.306;2023-10-13T10:01:26;4.30;;;3.13;;
10315;SDS011;5203;48.976;8.306;2023-10-13T10:04:06;5.68;;;2.70;;
10315;SDS011;5203;48.976;8.306;2023-10-13T10:06:34;5.32;;;2.60;;
10315;SDS011;5203;48.976;8.306;2023-10-13T10:09:08;4.38;;;3.65;;
10315;SDS011;5203;48.976;8.306;2023-10-13T10:17:06;4.38;;;2.30;;
10315;SDS011;5203;48.976;8.306;2023-10-13T10:19:33;6.65;;;3.00;;
10315;SDS011;5203;48.976;8.306;2023-10-13T10:22:10;6.95;;;2.85;;
10315;SDS011;5203;48.976;8.306;2023-10-13T10:24:42;5.40;;;2.38;;
10315;SDS011;5203;48.976;8.306;2023-10-13T10:27:09;6.18;;;3.03;;
10315;SDS011;5203;48.976;8.306;2023-10-13T10:29:40;2.60;;;2.28;;
10315;SDS011;5203;48.976;8.306;2023-10-13T10:32:17;7.22;;;3.15;;
10315;SDS011;5203;48.976;8.306;2023-10-13T10:34:44;6.22;;;3.22;;
10315;SDS011;5203;48.976;8.306;2023-10-13T10:37:09;4.43;;;2.10;;
10315;SDS011;5203;48.976;8.306;2023-10-13T10:39:37;7.38;;;3.08;;
10315;SDS011;5203;48.976;8.306;2023-10-13T10:42:14;6.15;;;2.60;;
10315;SDS011;5203;48.976;8.306;2023-10-13T10:44:41;4.43;;;3.00;;
10315;SDS011;5203;48.976;8.306;2023-10-13T10:47:15;8.35;;;2.22;;
10315;SDS011;5203;48.976;8.306;2023-10-13T10:49:58;4.13;;;3.00;;
10315;SDS011;5203;48.976;8.306;2023-10-13T10:52:25;3.65;;;2.50;;
10315;SDS011;5203;48.976;8.306;2023-10-13T10:54:59;5.75;;;2.60;;
10315;SDS011;5203;48.976;8.306;2023-10-13T10:57:25;4.60;;;2.58;;
10315;SDS011;5203;48.976;8.306;2023-10-13T11:00:02;6.03;;;2.17;;
10315;SDS011;5203;48.976;8.306;2023-10-13T11:02:39;4.32;;;2.20;;
10315;SDS011;5203;48.976;8.306;2023-10-13T11:05:05;5.28;;;2.67;;
10315;SDS011;5203;48.976;8.306;2023-10-13T11:07:32;5.47;;;2.25;;
10315;SDS011;5203;48.976;8.306;2023-10-13T11:10:09;5.63;;;2.85;;
10315;SDS011;5203;48.976;8.306;2023-10-13T11:15:44;4.72;;;2.33;;
10315;SDS011;5203;48.976;8.306;2023-10-13T11:18:10;3.33;;;1.70;;
10315;SDS011;5203;48.976;8.306;2023-10-13T11:20:46;5.10;;;3.22;;
10315;SDS011;5203;48.976;8.306;2023-10-13T11:23:15;6.38;;;2.30;;
10315;SDS011;5203;48.976;8.306;2023-10-13T11:25:41;3.85;;;2.53;;
10315;SDS011;5203;48.976;8.306;2023-10-13T11:30:35;7.38;;;2.33;;
10315;SDS011;5203;48.976;8.306;2023-10-13T11:33:01;3.83;;;1.95;;
10315;SDS011;5203;48.976;8.306;2023-10-13T11:35:35;5.22;;;2.25;;
10315;SDS011;5203;48.976;8.306;2023-10-13T11:38:28;6.25;;;2.13;;
10315;SDS011;5203;48.976;8.306;2023-10-13T11:41:16;5.00;;;2.45;;
10315;SDS011;5203;48.976;8.306;2023-10-13T11:46:17;4.40;;;2.10;;
10315;SDS011;5203;48.976;8.306;2023-10-13T11:51:50;5.30;;;2.35;;
10315;SDS011;5203;48.976;8.306;2023-10-13T11:54:19;6.13;;;2.60;;
10315;SDS011;5203;48.976;8.306;2023-10-13T11:56:47;5.63;;;2.60;;
10315;SDS011;5203;48.976;8.306;2023-10-13T11:59:13;4.30;;;2.65;;
10315;SDS011;5203;48.976;8.306;2023-10-13T12:01:45;5.60;;;3.08;;
10315;SDS011;5203;48.976;8.306;2023-10-13T12:04:30;5.63;;;2.42;;
10315;SDS011;5203;48.976;8.306;2023-10-13T12:07:15;5.32;;;2.78;;
10315;SDS011;5203;48.976;8.306;2023-10-13T12:10:05;3.95;;;2.33;;
10315;SDS011;5203;48.976;8.306;2023-10-13T12:12:40;5.07;;;2.28;;
10315;SDS011;5203;48.976;8.306;2023-10-13T12:15:08;5.80;;;2.22;;
10315;SDS011;5203;48.976;8.306;2023-10-13T12:17:35;4.68;;;1.85;;
10315;SDS011;5203;48.976;8.306;2023-10-13T12:20:01;6.45;;;3.25;;
10315;SDS011;5203;48.976;8.306;2023-10-13T12:22:34;3.88;;;2.15;;
10315;SDS011;5203;48.976;8.306;2023-10-13T12:25:16;10.10;;;3.20;;
10315;SDS011;5203;48.976;8.306;2023-10-13T12:27:59;4.57;;;2.50;;
10315;SDS011;5203;48.976;8.306;2023-10-13T12:30:47;4.00;;;2.63;;
10315;SDS011;5203;48.976;8.306;2023-10-13T12:33:18;4.88;;;3.40;;
10315;SDS011;5203;48.976;8.306;2023-10-13T12:36:02;4.15;;;3.03;;
10315;SDS011;5203;48.976;8.306;2023-10-13T12:38:28;5.15;;;2.65;;
10315;SDS011;5203;48.976;8.306;2023-10-13T12:41:16;6.38;;;2.90;;
10315;SDS011;5203;48.976;8.306;2023-10-13T12:44:02;5.00;;;2.47;;
10315;SDS011;5203;48.976;8.306;2023-10-13T12:46:47;6.47;;;2.83;;
10315;SDS011;5203;48.976;8.306;2023-10-13T12:49:34;3.83;;;2.35;;
10315;SDS011;5203;48.976;8.306;2023-10-13T12:52:03;5.28;;;3.10;;
10315;SDS011;5203;48.976;8.306;2023-10-13T12:54:29;5.43;;;2.28;;
10315;SDS011;5203;48.976;8.306;2023-10-13T12:57:00;3.75;;;2.15;;
10315;SDS011;5203;48.976;8.306;2023-10-13T12:59:27;4.22;;;2.90;;
10315;SDS011;5203;48.976;8.306;2023-10-13T13:01:53;4.35;;;2.47;;
10315;SDS011;5203;48.976;8.306;2023-10-13T13:04:19;5.35;;;2.88;;
10315;SDS011;5203;48.976;8.306;2023-10-13T13:06:49;3.95;;;2.63;;
10315;SDS011;5203;48.976;8.306;2023-10-13T13:09:16;7.70;;;2.55;;
10315;SDS011;5203;48.976;8.306;2023-10-13T13:11:51;6.45;;;2.80;;
10315;SDS011;5203;48.976;8.306;2023-10-13T13:14:22;4.10;;;2.45;;
10315;SDS011;5203;48.976;8.306;2023-10-13T13:16:53;4.70;;;2.60;;
10315;SDS011;5203;48.976;8.306;2023-10-13T13:19:30;4.43;;;2.03;;
10315;SDS011;5203;48.976;8.306;2023-10-13T13:21:59;4.80;;;3.10;;
10315;SDS011;5203;48.976;8.306;2023-10-13T13:24:25;4.28;;;1.65;;
10315;SDS011;5203;48.976;8.306;2023-10-13T13:26:54;6.40;;;2.22;;
10315;SDS011;5203;48.976;8.306;2023-10-13T13:29:30;6.93;;;2.50;;
10315;SDS011;5203;48.976;8.306;2023-10-13T13:31:56;4.15;;;2.60;;
10315;SDS011;5203;48.976;8.306;2023-10-13T13:34:21;5.50;;;2.80;;
10315;SDS011;5203;48.976;8.306;2023-10-13T13:36:47;5.32;;;2.25;;
10315;SDS011;5203;48.976;8.306;2023-10-13T13:39:20;5.68;;;2.70;;
10315;SDS011;5203;48.976;8.306;2023-10-13T13:41:56;4.63;;;1.77;;
10315;SDS011;5203;48.976;8.306;2023-10-13T13:44:24;5.00;;;2.72;;
10315;SDS011;5203;48.976;8.306;2023-10-13T13:47:00;4.47;;;2.67;;
10315;SDS011;5203;48.976;8.306;2023-10-13T13:49:36;5.68;;;2.70;;
10315;SDS011;5203;48.976;8.306;2023-10-13T13:52:06;5.10;;;2.70;;
10315;SDS011;5203;48.976;8.306;2023-10-13T13:54:32;5.90;;;2.65;;
10315;SDS011;5203;48.976;8.306;2023-10-13T13:56:58;5.13;;;2.28;;
10315;SDS011;5203;48.976;8.306;2023-10-13T13:59:24;6.57;;;2.47;;
10315;SDS011;5203;48.976;8.306;2023-10-13T14:01:50;5.70;;;1.90;;
10315;SDS011;5203;48.976;8.306;2023-10-13T14:04:18;5.50;;;3.28;;
10315;SDS011;5203;48.976;8.306;2023-10-13T14:06:44;7.05;;;2.40;;
10315;SDS011;5203;48.976;8.306;2023-10-13T14:09:10;3.72;;;2.55;;
10315;SDS011;5203;48.976;8.306;2023-10-13T14:11:41;4.68;;;2.83;;
10315;SDS011;5203;48.976;8.306;2023-10-13T14:14:25;4.75;;;2.67;;
10315;SDS011;5203;48.976;8.306;2023-10-13T14:16:51;3.70;;;1.98;;
10315;SDS011;5203;48.976;8.306;2023-10-13T14:19:18;4.85;;;2.60;;
10315;SDS011;5203;48.976;8.306;2023-10-13T14:21:58;6.13;;;3.45;;
10315;SDS011;5203;48.976;8.306;2023-10-13T14:24:24;5.93;;;3.08;;
10315;SDS011;5203;48.976;8.306;2023-10-13T14:26:58;5.05;;;2.33;;
10315;SDS011;5203;48.976;8.306;2023-10-13T14:29:36;4.60;;;2.95;;
10315;SDS011;5203;48.976;8.306;2023-10-13T14:32:07;5.72;;;2.90;;
10315;SDS011;5203;48.976;8.306;2023-10-13T14:34:44;3.40;;;2.33;;
10315;SDS011;5203;48.976;8.306;2023-10-13T14:37:13;4.40;;;2.63;;
10315;SDS011;5203;48.976;8.306;2023-10-13T14:39:39;6.47;;;2.53;;
10315;SDS011;5203;48.976;8.306;2023-10-13T14:42:05;6.32;;;3.17;;
10315;SDS011;5203;48.976;8.306;2023-10-13T14:44:34;4.30;;;2.13;;
10315;SDS011;5203;48.976;8.306;2023-10-13T14:47:02;7.32;;;2.40;;
10315;SDS011;5203;48.976;8.306;2023-10-13T14:49:30;6.30;;;2.50;;
10315;SDS011;5203;48.976;8.306;2023-10-13T14:51:56;2.92;;;2.03;;
10315;SDS011;5203;48.976;8.306;2023-10-13T14:54:24;5.60;;;2.13;;
10315;SDS011;5203;48.976;8.306;2023-10-13T14:57:00;7.25;;;2.20;;
10315;SDS011;5203;48.976;8.306;2023-10-13T14:59:27;3.83;;;2.30;;
10315;SDS011;5203;48.976;8.306;2023-10-13T15:01:53;4.78;;;2.28;;
10315;SDS011;5203;48.976;8.306;2023-10-13T15:04:18;3.33;;;2.35;;
10315;SDS011;5203;48.976;8.306;2023-10-13T15:06:49;3.50;;;2.47;;
10315;SDS011;5203;48.976;8.306;2023-10-13T15:09:15;3.13;;;1.90;;
10315;SDS011;5203;48.976;8.306;2023-10-13T15:11:48;4.50;;;1.98;;
10315;SDS011;5203;48.976;8.306;2023-10-13T15:14:17;4.20;;;2.30;;
10315;SDS011;5203;48.976;8.306;2023-10-13T15:16:45;5.90;;;2.72;;
10315;SDS011;5203;48.976;8.306;2023-10-13T15:19:11;7.05;;;2.58;;
10315;SDS011;5203;48.976;8.306;2023-10-13T15:21:37;2.85;;;1.67;;
10315;SDS011;5203;48.976;8.306;2023-10-13T15:24:05;2.58;;;1.80;;
10315;SDS011;5203;48.976;8.306;2023-10-13T15:26:45;5.57;;;2.00;;
10315;SDS011;5203;48.976;8.306;2023-10-13T15:29:15;4.63;;;2.05;;
10315;SDS011;5203;48.976;8.306;2023-10-13T15:31:42;5.80;;;2.00;;
10315;SDS011;5203;48.976;8.306;2023-10-13T15:34:40;3.92;;;3.15;;
10315;SDS011;5203;48.976;8.306;2023-10-13T15:37:05;4.50;;;2.08;;
10315;SDS011;5203;48.976;8.306;2023-10-13T15:39:31;3.00;;;1.70;;
10315;SDS011;5203;48.976;8.306;2023-10-13T15:41:57;5.47;;;2.40;;
10315;SDS011;5203;48.976;8.306;2023-10-13T15:44:27;4.70;;;1.58;;
10315;SDS011;5203;48.976;8.306;2023-10-13T15:46:56;3.90;;;1.20;;
10315;SDS011;5203;48.976;8.306;2023-10-13T15:49:24;2.78;;;1.85;;
10315;SDS011;5203;48.976;8.306;2023-10-13T15:51:52;3.47;;;2.58;;
10315;SDS011;5203;48.976;8.306;2023-10-13T15:54:22;6.88;;;2.03;;
10315;SDS011;5203;48.976;8.306;2023-10-13T15:56:49;3.50;;;2.00;;
10315;SDS011;5203;48.976;8.306;2023-10-13T15:59:19;4.35;;;2.17;;
10315;SDS011;5203;48.976;8.306;2023-10-13T16:01:48;4.95;;;2.20;;
10315;SDS011;5203;48.976;8.306;2023-10-13T16:04:14;5.43;;;1.95;;
10315;SDS011;5203;48.976;8.306;2023-10-13T16:06:40;4.70;;;2.65;;
10315;SDS011;5203;48.976;8.306;2023-10-13T16:09:11;5.90;;;2.65;;
10315;SDS011;5203;48.976;8.306;2023-10-13T16:11:41;4.28;;;1.85;;
10315;SDS011;5203;48.976;8.306;2023-10-13T16:14:07;5.03;;;1.52;;
10315;SDS011;5203;48.976;8.306;2023-10-13T16:16:40;6.13;;;2.15;;
10315;SDS011;5203;48.976;8.306;2023-10-13T16:19:09;7.07;;;2.25;;